sensor_id;sensor_type;location;lat;lon;timestamp;temperature;humidity
71367;DHT22;60030;52.274;8.040;2022-12-18T00:02:04;-3.50;99.90
71367;DHT22;60030;52.274;8.040;2022-12-18T00:04:31;-3.50;99.90
71367;DHT22;60030;52.274;8.040;2022-12-18T00:07:00;-3.50;99.90
71367;DHT22;60030;52.274;8.040;2022-12-18T00:09:28;-3.50;99.90
71367;DHT22;60030;52.274;8.040;2022-12-18T00:11:55;-3.50;99.90
71367;DHT22;60030;52.274;8.040;2022-12-18T00:14:22;-3.40;99.90
71367;DHT22;60030;52.274;8.040;2022-12-18T00:16:49;-3.50;99.90
71367;DHT22;60030;52.274;8.040;2022-12-18T00:19:17;-3.50;99.90
71367;DHT22;60030;52.274;8.040;2022-12-18T00:21:45;-3.50;99.90
71367;DHT22;60030;52.274;8.040;2022-12-18T00:24:13;-3.60;99.90
71367;DHT22;60030;52.274;8.040;2022-12-18T00:26:40;-3.50;99.90
71367;DHT22;60030;52.274;8.040;2022-12-18T00:29:10;-3.50;99.90
71367;DHT22;60030;52.274;8.040;2022-12-18T00:31:40;-3.50;99.90
71367;DHT22;60030;52.274;8.040;2022-12-18T00:34:10;-3.50;99.90
71367;DHT22;60030;52.274;8.040;2022-12-18T00:36:40;-3.50;99.90
71367;DHT22;60030;52.274;8.040;2022-12-18T00:39:08;-3.50;99.90
71367;DHT22;60030;52.274;8.040;2022-12-18T00:41:37;-3.50;99.90
71367;DHT22;60030;52.274;8.040;2022-12-18T00:44:22;-3.50;99.90
71367;DHT22;60030;52.274;8.040;2022-12-18T00:46:50;-3.50;99.90
71367;DHT22;60030;52.274;8.040;2022-12-18T00:49:18;-3.60;99.90
71367;DHT22;60030;52.274;8.040;2022-12-18T00:51:46;-3.60;99.90
71367;DHT22;60030;52.274;8.040;2022-12-18T00:54:13;-3.60;99.90
71367;DHT22;60030;52.274;8.040;2022-12-18T00:56:41;-3.50;99.90
71367;DHT22;60030;52.274;8.040;2022-12-18T00:59:08;-3.60;99.90
71367;DHT22;60030;52.274;8.040;2022-12-18T01:01:38;-3.60;99.90
71367;DHT22;60030;52.274;8.040;2022-12-18T01:04:06;-3.60;99.90
71367;DHT22;60030;52.274;8.040;2022-12-18T01:06:33;-3.60;99.90
71367;DHT22;60030;52.274;8.040;2022-12-18T01:09:01;-3.60;99.90
71367;DHT22;60030;52.274;8.040;2022-12-18T01:11:28;-3.60;99.90
71367;DHT22;60030;52.274;8.040;2022-12-18T01:13:57;-3.60;99.90
71367;DHT22;60030;52.274;8.040;2022-12-18T01:16:27;-3.60;99.90
71367;DHT22;60030;52.274;8.040;2022-12-18T01:18:54;-3.60;99.90
71367;DHT22;60030;52.274;8.040;2022-12-18T01:21:22;-3.50;99.90
71367;DHT22;60030;52.274;8.040;2022-12-18T01:23:51;-3.50;99.90
71367;DHT22;60030;52.274;8.040;2022-12-18T01:26:19;-3.50;99.90
71367;DHT22;60030;52.274;8.040;2022-12-18T01:28:46;-3.60;99.90
71367;DHT22;60030;52.274;8.040;2022-12-18T01:31:17;-3.60;99.90
71367;DHT22;60030;52.274;8.040;2022-12-18T01:33:46;-3.50;99.90
71367;DHT22;60030;52.274;8.040;2022-12-18T01:36:20;-3.50;99.90
71367;DHT22;60030;52.274;8.040;2022-12-18T01:38:48;-3.60;99.90
71367;DHT22;60030;52.274;8.040;2022-12-18T01:41:18;-3.50;99.90
71367;DHT22;60030;52.274;8.040;2022-12-18T01:43:51;-3.50;99.90
71367;DHT22;60030;52.274;8.040;2022-12-18T01:46:21;-3.50;99.90
71367;DHT22;60030;52.274;8.040;2022-12-18T01:48:57;-3.60;99.90
71367;DHT22;60030;52.274;8.040;2022-12-18T01:51:27;-3.60;99.90
71367;DHT22;60030;52.274;8.040;2022-12-18T01:53:54;-3.60;99.90
71367;DHT22;60030;52.274;8.040;2022-12-18T01:56:22;-3.50;99.90
71367;DHT22;60030;52.274;8.040;2022-12-18T01:58:54;-3.50;99.90
71367;DHT22;60030;52.274;8.040;2022-12-18T02:01:23;-3.60;99.90
71367;DHT22;60030;52.274;8.040;2022-12-18T02:03:51;-3.80;99.90
71367;DHT22;60030;52.274;8.040;2022-12-18T02:06:23;-3.70;99.90
71367;DHT22;60030;52.274;8.040;2022-12-18T02:09:07;-3.60;99.90
71367;DHT22;60030;52.274;8.040;2022-12-18T02:11:42;-3.70;99.90
71367;DHT22;60030;52.274;8.040;2022-12-18T02:14:18;-3.70;99.90
71367;DHT22;60030;52.274;8.040;2022-12-18T02:16:54;-3.80;99.90
71367;DHT22;60030;52.274;8.040;2022-12-18T02:19:39;-3.80;99.90
71367;DHT22;60030;52.274;8.040;2022-12-18T02:22:20;-3.70;99.90
71367;DHT22;60030;52.274;8.040;2022-12-18T02:24:58;-3.60;99.90
71367;DHT22;60030;52.274;8.040;2022-12-18T02:27:30;-3.60;99.90
71367;DHT22;60030;52.274;8.040;2022-12-18T02:30:00;-3.80;99.90
71367;DHT22;60030;52.274;8.040;2022-12-18T02:32:32;-3.80;99.90
71367;DHT22;60030;52.274;8.040;2022-12-18T02:35:02;-3.70;99.90
71367;DHT22;60030;52.274;8.040;2022-12-18T02:37:32;-3.70;99.90
71367;DHT22;60030;52.274;8.040;2022-12-18T02:40:04;-3.80;99.90
71367;DHT22;60030;52.274;8.040;2022-12-18T02:42:35;-3.80;99.90
71367;DHT22;60030;52.274;8.040;2022-12-18T02:45:05;-3.80;99.90
71367;DHT22;60030;52.274;8.040;2022-12-18T02:47:37;-3.90;99.90
71367;DHT22;60030;52.274;8.040;2022-12-18T02:50:12;-3.80;99.90
71367;DHT22;60030;52.274;8.040;2022-12-18T02:52:48;-3.80;99.90
71367;DHT22;60030;52.274;8.040;2022-12-18T02:55:25;-3.80;99.90
71367;DHT22;60030;52.274;8.040;2022-12-18T02:58:05;-3.70;99.90
71367;DHT22;60030;52.274;8.040;2022-12-18T03:00:41;-3.70;99.90
71367;DHT22;60030;52.274;8.040;2022-12-18T03:03:16;-3.70;99.90
71367;DHT22;60030;52.274;8.040;2022-12-18T03:05:51;-3.70;99.90
71367;DHT22;60030;52.274;8.040;2022-12-18T03:08:21;-3.70;99.90
71367;DHT22;60030;52.274;8.040;2022-12-18T03:10:53;-3.70;99.90
71367;DHT22;60030;52.274;8.040;2022-12-18T03:13:27;-3.80;99.90
71367;DHT22;60030;52.274;8.040;2022-12-18T03:15:56;-4.00;99.90
71367;DHT22;60030;52.274;8.040;2022-12-18T03:18:26;-3.90;99.90
71367;DHT22;60030;52.274;8.040;2022-12-18T03:20:56;-4.00;99.90
71367;DHT22;60030;52.274;8.040;2022-12-18T03:23:29;-3.90;99.90
71367;DHT22;60030;52.274;8.040;2022-12-18T03:26:02;-3.70;99.90
71367;DHT22;60030;52.274;8.040;2022-12-18T03:28:36;-3.70;99.90
71367;DHT22;60030;52.274;8.040;2022-12-18T03:31:09;-3.70;99.90
71367;DHT22;60030;52.274;8.040;2022-12-18T03:33:41;-3.70;99.90
71367;DHT22;60030;52.274;8.040;2022-12-18T03:36:09;-3.70;99.90
71367;DHT22;60030;52.274;8.040;2022-12-18T03:38:37;-3.70;99.90
71367;DHT22;60030;52.274;8.040;2022-12-18T03:41:11;-3.80;99.90
71367;DHT22;60030;52.274;8.040;2022-12-18T03:44:04;-3.80;99.90
71367;DHT22;60030;52.274;8.040;2022-12-18T03:46:42;-3.80;99.90
71367;DHT22;60030;52.274;8.040;2022-12-18T03:49:19;-3.70;99.90
71367;DHT22;60030;52.274;8.040;2022-12-18T03:51:54;-3.80;99.90
71367;DHT22;60030;52.274;8.040;2022-12-18T03:54:24;-3.90;99.90
71367;DHT22;60030;52.274;8.040;2022-12-18T03:57:06;-3.80;99.90
71367;DHT22;60030;52.274;8.040;2022-12-18T03:59:37;-3.80;99.90
71367;DHT22;60030;52.274;8.040;2022-12-18T04:02:07;-3.80;99.90
71367;DHT22;60030;52.274;8.040;2022-12-18T04:04:37;-3.80;99.90
71367;DHT22;60030;52.274;8.040;2022-12-18T04:07:05;-4.10;99.90
71367;DHT22;60030;52.274;8.040;2022-12-18T04:09:38;-4.00;99.90
71367;DHT22;60030;52.274;8.040;2022-12-18T04:12:06;-3.90;99.90
71367;DHT22;60030;52.274;8.040;2022-12-18T04:14:36;-4.00;99.90
71367;DHT22;60030;52.274;8.040;2022-12-18T04:17:07;-3.90;99.90
71367;DHT22;60030;52.274;8.040;2022-12-18T04:19:34;-3.90;99.90
71367;DHT22;60030;52.274;8.040;2022-12-18T04:22:02;-3.90;99.90
71367;DHT22;60030;52.274;8.040;2022-12-18T04:24:35;-3.90;99.90
71367;DHT22;60030;52.274;8.040;2022-12-18T04:27:12;-3.90;99.90
71367;DHT22;60030;52.274;8.040;2022-12-18T04:29:44;-4.10;99.90
71367;DHT22;60030;52.274;8.040;2022-12-18T04:32:12;-4.20;99.90
71367;DHT22;60030;52.274;8.040;2022-12-18T04:34:41;-4.30;99.90
71367;DHT22;60030;52.274;8.040;2022-12-18T04:37:08;-4.50;99.90
71367;DHT22;60030;52.274;8.040;2022-12-18T04:39:35;-4.40;99.90
71367;DHT22;60030;52.274;8.040;2022-12-18T04:42:08;-4.50;99.90
71367;DHT22;60030;52.274;8.040;2022-12-18T04:44:36;-4.30;99.90
71367;DHT22;60030;52.274;8.040;2022-12-18T04:47:04;-4.30;99.90
71367;DHT22;60030;52.274;8.040;2022-12-18T04:49:32;-4.10;99.90
71367;DHT22;60030;52.274;8.040;2022-12-18T04:51:59;-4.00;99.90
71367;DHT22;60030;52.274;8.040;2022-12-18T04:54:26;-3.90;99.90
71367;DHT22;60030;52.274;8.040;2022-12-18T04:56:53;-3.90;99.90
71367;DHT22;60030;52.274;8.040;2022-12-18T04:59:20;-4.10;99.90
71367;DHT22;60030;52.274;8.040;2022-12-18T05:01:47;-4.10;99.90
71367;DHT22;60030;52.274;8.040;2022-12-18T05:04:15;-4.10;99.90
71367;DHT22;60030;52.274;8.040;2022-12-18T05:06:42;-4.40;99.90
71367;DHT22;60030;52.274;8.040;2022-12-18T05:09:09;-4.50;99.90
71367;DHT22;60030;52.274;8.040;2022-12-18T05:11:36;-4.50;99.90
71367;DHT22;60030;52.274;8.040;2022-12-18T05:14:04;-4.60;99.90
71367;DHT22;60030;52.274;8.040;2022-12-18T05:16:31;-4.40;99.90
71367;DHT22;60030;52.274;8.040;2022-12-18T05:18:58;-4.50;99.90
71367;DHT22;60030;52.274;8.040;2022-12-18T05:21:26;-4.70;99.90
71367;DHT22;60030;52.274;8.040;2022-12-18T05:23:53;-4.50;99.90
71367;DHT22;60030;52.274;8.040;2022-12-18T05:26:20;-4.30;99.90
71367;DHT22;60030;52.274;8.040;2022-12-18T05:28:47;-4.60;99.90
71367;DHT22;60030;52.274;8.040;2022-12-18T05:31:14;-4.50;99.90
71367;DHT22;60030;52.274;8.040;2022-12-18T05:33:41;-4.50;99.90
71367;DHT22;60030;52.274;8.040;2022-12-18T05:36:09;-4.60;99.90
71367;DHT22;60030;52.274;8.040;2022-12-18T05:38:39;-4.70;99.90
71367;DHT22;60030;52.274;8.040;2022-12-18T05:41:06;-4.90;99.90
71367;DHT22;60030;52.274;8.040;2022-12-18T05:43:35;-4.50;99.90
71367;DHT22;60030;52.274;8.040;2022-12-18T05:46:04;-4.40;99.90
71367;DHT22;60030;52.274;8.040;2022-12-18T05:48:31;-4.60;99.90
71367;DHT22;60030;52.274;8.040;2022-12-18T05:51:04;-4.70;99.90
71367;DHT22;60030;52.274;8.040;2022-12-18T05:53:32;-4.60;99.90
71367;DHT22;60030;52.274;8.040;2022-12-18T05:56:02;-4.50;99.90
71367;DHT22;60030;52.274;8.040;2022-12-18T05:58:29;-4.70;99.90
71367;DHT22;60030;52.274;8.040;2022-12-18T06:00:57;-4.90;99.90
71367;DHT22;60030;52.274;8.040;2022-12-18T06:03:24;-4.80;99.90
71367;DHT22;60030;52.274;8.040;2022-12-18T06:05:51;-4.70;99.90
71367;DHT22;60030;52.274;8.040;2022-12-18T06:08:18;-4.80;99.90
71367;DHT22;60030;52.274;8.040;2022-12-18T06:10:50;-4.70;99.90
71367;DHT22;60030;52.274;8.040;2022-12-18T06:13:20;-4.50;99.90
71367;DHT22;60030;52.274;8.040;2022-12-18T06:15:47;-4.50;99.90
71367;DHT22;60030;52.274;8.040;2022-12-18T06:18:14;-4.70;99.90
71367;DHT22;60030;52.274;8.040;2022-12-18T06:20:41;-4.70;99.90
71367;DHT22;60030;52.274;8.040;2022-12-18T06:23:08;-4.80;99.90
71367;DHT22;60030;52.274;8.040;2022-12-18T06:25:37;-4.90;99.90
71367;DHT22;60030;52.274;8.040;2022-12-18T06:28:05;-4.90;99.90
71367;DHT22;60030;52.274;8.040;2022-12-18T06:30:33;-5.00;99.90
71367;DHT22;60030;52.274;8.040;2022-12-18T06:33:02;-4.80;99.90
71367;DHT22;60030;52.274;8.040;2022-12-18T06:35:29;-4.60;99.90
71367;DHT22;60030;52.274;8.040;2022-12-18T06:37:56;-4.70;99.90
71367;DHT22;60030;52.274;8.040;2022-12-18T06:40:23;-4.50;99.90
71367;DHT22;60030;52.274;8.040;2022-12-18T06:42:50;-4.70;99.90
71367;DHT22;60030;52.274;8.040;2022-12-18T06:45:17;-4.90;99.90
71367;DHT22;60030;52.274;8.040;2022-12-18T06:47:45;-4.80;99.90
71367;DHT22;60030;52.274;8.040;2022-12-18T06:50:13;-4.70;99.90
71367;DHT22;60030;52.274;8.040;2022-12-18T06:52:40;-4.60;99.90
71367;DHT22;60030;52.274;8.040;2022-12-18T06:55:08;-4.50;99.90
71367;DHT22;60030;52.274;8.040;2022-12-18T06:57:35;-4.60;99.90
71367;DHT22;60030;52.274;8.040;2022-12-18T07:00:05;-4.70;99.90
71367;DHT22;60030;52.274;8.040;2022-12-18T07:02:32;-4.70;99.90
71367;DHT22;60030;52.274;8.040;2022-12-18T07:05:01;-4.90;99.90
71367;DHT22;60030;52.274;8.040;2022-12-18T07:07:28;-5.10;99.90
71367;DHT22;60030;52.274;8.040;2022-12-18T07:09:55;-5.10;99.90
71367;DHT22;60030;52.274;8.040;2022-12-18T07:12:22;-5.10;99.90
71367;DHT22;60030;52.274;8.040;2022-12-18T07:14:49;-4.80;99.90
71367;DHT22;60030;52.274;8.040;2022-12-18T07:17:16;-5.00;99.90
71367;DHT22;60030;52.274;8.040;2022-12-18T07:19:43;-4.90;99.90
71367;DHT22;60030;52.274;8.040;2022-12-18T07:22:11;-4.90;99.90
71367;DHT22;60030;52.274;8.040;2022-12-18T07:24:38;-4.80;99.90
71367;DHT22;60030;52.274;8.040;2022-12-18T07:27:05;-4.90;99.90
71367;DHT22;60030;52.274;8.040;2022-12-18T07:29:32;-5.10;99.90
71367;DHT22;60030;52.274;8.040;2022-12-18T07:31:59;-4.80;99.90
71367;DHT22;60030;52.274;8.040;2022-12-18T07:34:27;-4.70;99.90
71367;DHT22;60030;52.274;8.040;2022-12-18T07:36:54;-4.60;99.90
71367;DHT22;60030;52.274;8.040;2022-12-18T07:39:22;-4.80;99.90
71367;DHT22;60030;52.274;8.040;2022-12-18T07:41:49;-4.80;99.90
71367;DHT22;60030;52.274;8.040;2022-12-18T07:44:32;-4.80;99.90
71367;DHT22;60030;52.274;8.040;2022-12-18T07:46:59;-4.80;99.90
71367;DHT22;60030;52.274;8.040;2022-12-18T07:49:26;-4.80;99.90
71367;DHT22;60030;52.274;8.040;2022-12-18T07:51:54;-4.90;99.90
71367;DHT22;60030;52.274;8.040;2022-12-18T07:54:23;-4.80;99.90
71367;DHT22;60030;52.274;8.040;2022-12-18T07:56:51;-4.80;99.90
71367;DHT22;60030;52.274;8.040;2022-12-18T07:59:18;-4.80;99.90
71367;DHT22;60030;52.274;8.040;2022-12-18T08:01:45;-4.70;99.90
71367;DHT22;60030;52.274;8.040;2022-12-18T08:04:12;-4.70;99.90
71367;DHT22;60030;52.274;8.040;2022-12-18T08:06:39;-4.50;99.90
71367;DHT22;60030;52.274;8.040;2022-12-18T08:09:06;-4.50;99.90
71367;DHT22;60030;52.274;8.040;2022-12-18T08:11:35;-4.30;99.90
71367;DHT22;60030;52.274;8.040;2022-12-18T08:14:03;-4.50;99.90
71367;DHT22;60030;52.274;8.040;2022-12-18T08:16:30;-4.70;99.90
71367;DHT22;60030;52.274;8.040;2022-12-18T08:18:57;-4.60;99.90
71367;DHT22;60030;52.274;8.040;2022-12-18T08:21:26;-4.60;99.90
71367;DHT22;60030;52.274;8.040;2022-12-18T08:23:54;-4.70;99.90
71367;DHT22;60030;52.274;8.040;2022-12-18T08:26:22;-4.70;99.90
71367;DHT22;60030;52.274;8.040;2022-12-18T08:28:51;-4.60;99.90
71367;DHT22;60030;52.274;8.040;2022-12-18T08:31:19;-4.60;99.90
71367;DHT22;60030;52.274;8.040;2022-12-18T08:33:48;-4.50;99.90
71367;DHT22;60030;52.274;8.040;2022-12-18T08:36:16;-4.30;99.90
71367;DHT22;60030;52.274;8.040;2022-12-18T08:38:43;-4.50;99.90
71367;DHT22;60030;52.274;8.040;2022-12-18T08:41:12;-4.50;99.90
71367;DHT22;60030;52.274;8.040;2022-12-18T08:43:40;-4.40;99.90
71367;DHT22;60030;52.274;8.040;2022-12-18T08:46:27;-4.30;99.90
71367;DHT22;60030;52.274;8.040;2022-12-18T08:48:57;-4.30;99.90
71367;DHT22;60030;52.274;8.040;2022-12-18T08:51:24;-4.20;99.90
71367;DHT22;60030;52.274;8.040;2022-12-18T08:53:52;-4.10;99.90
71367;DHT22;60030;52.274;8.040;2022-12-18T08:56:19;-4.10;99.90
71367;DHT22;60030;52.274;8.040;2022-12-18T08:58:46;-4.10;99.90
71367;DHT22;60030;52.274;8.040;2022-12-18T09:01:13;-4.00;99.90
71367;DHT22;60030;52.274;8.040;2022-12-18T09:03:42;-4.00;99.90
71367;DHT22;60030;52.274;8.040;2022-12-18T09:06:13;-3.80;99.90
71367;DHT22;60030;52.274;8.040;2022-12-18T09:08:41;-4.00;99.90
71367;DHT22;60030;52.274;8.040;2022-12-18T09:11:12;-3.80;99.90
71367;DHT22;60030;52.274;8.040;2022-12-18T09:13:40;-3.80;99.90
71367;DHT22;60030;52.274;8.040;2022-12-18T09:16:07;-3.60;99.90
71367;DHT22;60030;52.274;8.040;2022-12-18T09:18:34;-3.50;99.90
71367;DHT22;60030;52.274;8.040;2022-12-18T09:21:09;-3.50;99.90
71367;DHT22;60030;52.274;8.040;2022-12-18T09:23:36;-3.40;99.90
71367;DHT22;60030;52.274;8.040;2022-12-18T09:26:03;-3.50;99.90
71367;DHT22;60030;52.274;8.040;2022-12-18T09:28:30;-3.30;99.90
71367;DHT22;60030;52.274;8.040;2022-12-18T09:30:58;-3.30;99.90
71367;DHT22;60030;52.274;8.040;2022-12-18T09:33:25;-3.20;99.90
71367;DHT22;60030;52.274;8.040;2022-12-18T09:35:52;-3.30;99.90
71367;DHT22;60030;52.274;8.040;2022-12-18T09:38:20;-3.20;99.90
71367;DHT22;60030;52.274;8.040;2022-12-18T09:40:51;-3.00;99.90
71367;DHT22;60030;52.274;8.040;2022-12-18T09:43:21;-2.80;99.90
71367;DHT22;60030;52.274;8.040;2022-12-18T09:45:51;-2.90;99.90
71367;DHT22;60030;52.274;8.040;2022-12-18T09:48:23;-2.80;99.90
71367;DHT22;60030;52.274;8.040;2022-12-18T09:50:57;-2.70;99.90
71367;DHT22;60030;52.274;8.040;2022-12-18T09:53:31;-2.70;99.90
71367;DHT22;60030;52.274;8.040;2022-12-18T09:56:00;-2.80;99.90
71367;DHT22;60030;52.274;8.040;2022-12-18T09:58:31;-2.80;99.90
71367;DHT22;60030;52.274;8.040;2022-12-18T10:01:00;-2.80;99.90
71367;DHT22;60030;52.274;8.040;2022-12-18T10:03:27;-2.90;99.90
71367;DHT22;60030;52.274;8.040;2022-12-18T10:06:05;-2.80;99.90
71367;DHT22;60030;52.274;8.040;2022-12-18T10:08:40;-2.60;99.90
71367;DHT22;60030;52.274;8.040;2022-12-18T10:11:26;-2.30;99.90
71367;DHT22;60030;52.274;8.040;2022-12-18T10:13:58;-2.10;99.90
71367;DHT22;60030;52.274;8.040;2022-12-18T10:16:34;-2.00;99.90
71367;DHT22;60030;52.274;8.040;2022-12-18T10:19:18;-2.00;99.90
71367;DHT22;60030;52.274;8.040;2022-12-18T10:21:51;-2.10;99.90
71367;DHT22;60030;52.274;8.040;2022-12-18T10:24:29;-1.90;99.90
71367;DHT22;60030;52.274;8.040;2022-12-18T10:27:06;-1.80;99.90
71367;DHT22;60030;52.274;8.040;2022-12-18T10:29:35;-1.80;99.90
71367;DHT22;60030;52.274;8.040;2022-12-18T10:32:03;-1.70;99.90
71367;DHT22;60030;52.274;8.040;2022-12-18T10:34:30;-1.50;99.90
71367;DHT22;60030;52.274;8.040;2022-12-18T10:36:57;-1.60;99.90
71367;DHT22;60030;52.274;8.040;2022-12-18T10:39:28;-1.30;99.90
71367;DHT22;60030;52.274;8.040;2022-12-18T10:42:10;-1.30;99.90
71367;DHT22;60030;52.274;8.040;2022-12-18T10:44:38;-1.50;99.90
71367;DHT22;60030;52.274;8.040;2022-12-18T10:47:12;-1.30;99.90
71367;DHT22;60030;52.274;8.040;2022-12-18T10:49:47;-1.20;99.90
71367;DHT22;60030;52.274;8.040;2022-12-18T10:52:18;-1.20;99.90
71367;DHT22;60030;52.274;8.040;2022-12-18T10:54:50;-0.90;99.90
71367;DHT22;60030;52.274;8.040;2022-12-18T10:57:30;-0.90;99.90
71367;DHT22;60030;52.274;8.040;2022-12-18T10:59:59;-0.80;99.90
71367;DHT22;60030;52.274;8.040;2022-12-18T11:02:28;-0.70;99.90
71367;DHT22;60030;52.274;8.040;2022-12-18T11:05:01;-0.90;99.90
71367;DHT22;60030;52.274;8.040;2022-12-18T11:07:47;-0.70;99.90
71367;DHT22;60030;52.274;8.040;2022-12-18T11:10:18;-0.40;99.90
71367;DHT22;60030;52.274;8.040;2022-12-18T11:12:45;-0.40;99.90
71367;DHT22;60030;52.274;8.040;2022-12-18T11:15:20;-0.40;99.90
71367;DHT22;60030;52.274;8.040;2022-12-18T11:17:48;-0.40;99.90
71367;DHT22;60030;52.274;8.040;2022-12-18T11:20:23;-0.40;99.90
71367;DHT22;60030;52.274;8.040;2022-12-18T11:22:56;-0.20;99.90
71367;DHT22;60030;52.274;8.040;2022-12-18T11:25:28;-0.10;99.90
71367;DHT22;60030;52.274;8.040;2022-12-18T11:27:57;0.00;99.90
71367;DHT22;60030;52.274;8.040;2022-12-18T11:30:27;0.00;99.90
71367;DHT22;60030;52.274;8.040;2022-12-18T11:32:56;-0.30;99.90
71367;DHT22;60030;52.274;8.040;2022-12-18T11:35:37;-0.40;99.90
71367;DHT22;60030;52.274;8.040;2022-12-18T11:38:12;-0.20;99.90
71367;DHT22;60030;52.274;8.040;2022-12-18T11:40:44;-0.10;99.90
71367;DHT22;60030;52.274;8.040;2022-12-18T11:43:16;0.00;99.90
71367;DHT22;60030;52.274;8.040;2022-12-18T11:45:49;0.10;99.90
71367;DHT22;60030;52.274;8.040;2022-12-18T11:48:22;0.00;99.90
71367;DHT22;60030;52.274;8.040;2022-12-18T11:50:52;-0.10;99.90
71367;DHT22;60030;52.274;8.040;2022-12-18T11:53:20;-0.10;99.90
71367;DHT22;60030;52.274;8.040;2022-12-18T11:56:02;-0.30;99.90
71367;DHT22;60030;52.274;8.040;2022-12-18T11:58:47;-0.20;99.90
71367;DHT22;60030;52.274;8.040;2022-12-18T12:01:34;-0.40;99.90
71367;DHT22;60030;52.274;8.040;2022-12-18T12:07:09;-0.30;99.90
71367;DHT22;60030;52.274;8.040;2022-12-18T12:09:47;-0.30;99.90
71367;DHT22;60030;52.274;8.040;2022-12-18T12:12:30;-0.20;99.90
71367;DHT22;60030;52.274;8.040;2022-12-18T12:15:21;0.00;99.90
71367;DHT22;60030;52.274;8.040;2022-12-18T12:17:52;0.10;99.90
71367;DHT22;60030;52.274;8.040;2022-12-18T12:20:28;0.20;99.90
71367;DHT22;60030;52.274;8.040;2022-12-18T12:23:05;0.20;99.90
71367;DHT22;60030;52.274;8.040;2022-12-18T12:25:37;0.10;99.90
71367;DHT22;60030;52.274;8.040;2022-12-18T12:28:21;0.30;99.90
71367;DHT22;60030;52.274;8.040;2022-12-18T12:30:57;0.10;99.90
71367;DHT22;60030;52.274;8.040;2022-12-18T12:33:35;0.20;99.90
71367;DHT22;60030;52.274;8.040;2022-12-18T12:36:09;0.10;99.90
71367;DHT22;60030;52.274;8.040;2022-12-18T12:38:41;0.20;99.90
71367;DHT22;60030;52.274;8.040;2022-12-18T12:41:13;0.20;99.90
71367;DHT22;60030;52.274;8.040;2022-12-18T12:43:58;0.00;99.90
71367;DHT22;60030;52.274;8.040;2022-12-18T12:46:30;0.20;99.90
71367;DHT22;60030;52.274;8.040;2022-12-18T12:49:01;0.00;99.90
71367;DHT22;60030;52.274;8.040;2022-12-18T12:51:32;-0.10;99.90
71367;DHT22;60030;52.274;8.040;2022-12-18T12:54:02;0.00;99.90
71367;DHT22;60030;52.274;8.040;2022-12-18T12:56:41;0.00;99.90
71367;DHT22;60030;52.274;8.040;2022-12-18T12:59:15;0.10;99.90
71367;DHT22;60030;52.274;8.040;2022-12-18T13:01:53;0.10;99.90
71367;DHT22;60030;52.274;8.040;2022-12-18T13:04:27;0.00;99.90
71367;DHT22;60030;52.274;8.040;2022-12-18T13:07:00;-0.10;99.90
71367;DHT22;60030;52.274;8.040;2022-12-18T13:09:30;0.00;99.90
71367;DHT22;60030;52.274;8.040;2022-12-18T13:12:04;0.10;99.90
71367;DHT22;60030;52.274;8.040;2022-12-18T13:14:51;0.30;99.90
71367;DHT22;60030;52.274;8.040;2022-12-18T13:17:28;0.30;99.90
71367;DHT22;60030;52.274;8.040;2022-12-18T13:20:11;0.20;99.90
71367;DHT22;60030;52.274;8.040;2022-12-18T13:22:42;0.20;99.90
71367;DHT22;60030;52.274;8.040;2022-12-18T13:25:33;0.00;99.90
71367;DHT22;60030;52.274;8.040;2022-12-18T13:28:10;0.20;99.90
71367;DHT22;60030;52.274;8.040;2022-12-18T13:30:48;0.20;99.90
71367;DHT22;60030;52.274;8.040;2022-12-18T13:33:40;0.20;99.90
71367;DHT22;60030;52.274;8.040;2022-12-18T13:36:32;0.20;99.90
71367;DHT22;60030;52.274;8.040;2022-12-18T13:39:31;0.20;99.90
71367;DHT22;60030;52.274;8.040;2022-12-18T13:45:44;0.20;99.90
71367;DHT22;60030;52.274;8.040;2022-12-18T13:48:18;0.20;99.90
71367;DHT22;60030;52.274;8.040;2022-12-18T13:50:53;0.10;99.90
71367;DHT22;60030;52.274;8.040;2022-12-18T13:53:24;0.30;99.90
71367;DHT22;60030;52.274;8.040;2022-12-18T13:55:53;0.30;99.90
71367;DHT22;60030;52.274;8.040;2022-12-18T13:58:20;0.40;99.90
71367;DHT22;60030;52.274;8.040;2022-12-18T14:00:49;0.30;99.90
71367;DHT22;60030;52.274;8.040;2022-12-18T14:03:21;0.20;99.90
71367;DHT22;60030;52.274;8.040;2022-12-18T14:05:54;0.20;99.90
71367;DHT22;60030;52.274;8.040;2022-12-18T14:08:25;0.20;99.90
71367;DHT22;60030;52.274;8.040;2022-12-18T14:10:54;0.50;99.90
71367;DHT22;60030;52.274;8.040;2022-12-18T14:13:26;0.60;99.90
71367;DHT22;60030;52.274;8.040;2022-12-18T14:15:55;0.60;99.90
71367;DHT22;60030;52.274;8.040;2022-12-18T14:18:25;0.40;99.90
71367;DHT22;60030;52.274;8.040;2022-12-18T14:20:56;0.30;99.90
71367;DHT22;60030;52.274;8.040;2022-12-18T14:23:27;0.30;99.90
71367;DHT22;60030;52.274;8.040;2022-12-18T14:25:54;0.30;99.90
71367;DHT22;60030;52.274;8.040;2022-12-18T14:28:21;0.10;99.90
71367;DHT22;60030;52.274;8.040;2022-12-18T14:30:49;0.20;99.90
71367;DHT22;60030;52.274;8.040;2022-12-18T14:33:19;0.20;99.90
71367;DHT22;60030;52.274;8.040;2022-12-18T14:35:55;0.20;99.90
71367;DHT22;60030;52.274;8.040;2022-12-18T14:38:26;0.30;99.90
71367;DHT22;60030;52.274;8.040;2022-12-18T14:41:04;0.20;99.90
71367;DHT22;60030;52.274;8.040;2022-12-18T14:43:33;0.20;99.90
71367;DHT22;60030;52.274;8.040;2022-12-18T14:46:01;0.20;99.90
71367;DHT22;60030;52.274;8.040;2022-12-18T14:48:37;0.20;99.90
71367;DHT22;60030;52.274;8.040;2022-12-18T14:51:06;0.00;99.90
71367;DHT22;60030;52.274;8.040;2022-12-18T14:53:36;0.10;99.90
71367;DHT22;60030;52.274;8.040;2022-12-18T14:56:14;0.10;99.90
71367;DHT22;60030;52.274;8.040;2022-12-18T14:58:48;0.00;99.90
71367;DHT22;60030;52.274;8.040;2022-12-18T15:01:21;0.10;99.90
71367;DHT22;60030;52.274;8.040;2022-12-18T15:03:50;0.10;99.90
71367;DHT22;60030;52.274;8.040;2022-12-18T15:06:24;0.20;99.90
71367;DHT22;60030;52.274;8.040;2022-12-18T15:08:53;0.20;99.90
71367;DHT22;60030;52.274;8.040;2022-12-18T15:11:31;0.10;99.90
71367;DHT22;60030;52.274;8.040;2022-12-18T15:13:59;0.10;99.90
71367;DHT22;60030;52.274;8.040;2022-12-18T15:16:27;0.10;99.90
71367;DHT22;60030;52.274;8.040;2022-12-18T15:18:55;0.00;99.90
71367;DHT22;60030;52.274;8.040;2022-12-18T15:21:23;0.00;99.90
71367;DHT22;60030;52.274;8.040;2022-12-18T15:23:51;0.00;99.90
71367;DHT22;60030;52.274;8.040;2022-12-18T15:26:20;0.00;99.90
71367;DHT22;60030;52.274;8.040;2022-12-18T15:28:50;0.20;99.90
71367;DHT22;60030;52.274;8.040;2022-12-18T15:31:24;0.10;99.90
71367;DHT22;60030;52.274;8.040;2022-12-18T15:34:10;0.00;99.90
71367;DHT22;60030;52.274;8.040;2022-12-18T15:36:39;0.20;99.90
71367;DHT22;60030;52.274;8.040;2022-12-18T15:39:09;0.20;99.90
71367;DHT22;60030;52.274;8.040;2022-12-18T15:41:37;0.20;99.90
71367;DHT22;60030;52.274;8.040;2022-12-18T15:44:21;0.20;99.90
71367;DHT22;60030;52.274;8.040;2022-12-18T15:46:48;0.10;99.90
71367;DHT22;60030;52.274;8.040;2022-12-18T15:49:16;0.20;99.90
71367;DHT22;60030;52.274;8.040;2022-12-18T15:51:43;0.30;99.90
71367;DHT22;60030;52.274;8.040;2022-12-18T15:54:13;0.20;99.90
71367;DHT22;60030;52.274;8.040;2022-12-18T15:56:42;0.30;99.90
71367;DHT22;60030;52.274;8.040;2022-12-18T15:59:26;0.30;99.90
71367;DHT22;60030;52.274;8.040;2022-12-18T16:01:54;0.20;99.90
71367;DHT22;60030;52.274;8.040;2022-12-18T16:04:23;0.30;99.90
71367;DHT22;60030;52.274;8.040;2022-12-18T16:06:51;0.10;99.90